Time;durP1;ratioP1;P1;durP2;ratioP2;P2;SDS_P1;SDS_P2;PMS_P1;PMS_P2;Temp;Humidity;BMP_temperature;BMP_pressure;BME280_temperature;BME280_humidity;BME280_pressure;Samples;Min_cycle;Max_cycle;Signal;HPM_P1;HPM_P2
2020/12/03 00:01:30;;;;;;;29.55;18.30;;;;;;;1.89;59.33;99774.47;4405324;32;34377;-94
2020/12/03 00:04:05;;;;;;;25.95;16.80;;;;;;;2.06;58.58;99765.00;4423218;32;34468;-93
2020/12/03 00:06:50;;;;;;;30.10;17.60;;;;;;;1.70;58.78;99769.00;4422618;32;33674;-95
2020/12/03 00:09:48;;;;;;;27.42;15.15;;;;;;;2.20;57.89;99750.50;4398760;32;34724;-95
2020/12/03 00:12:20;;;;;;;29.65;16.40;;;;;;;2.24;57.37;99746.56;4371164;32;34244;-95
2020/12/03 00:14:56;;;;;;;25.88;15.85;;;;;;;2.27;57.00;99729.47;4376466;32;33375;-94
2020/12/03 00:17:32;;;;;;;28.80;16.25;;;;;;;2.37;56.38;99737.50;4369904;32;34100;-96
2020/12/03 00:20:18;;;;;;;31.83;15.70;;;;;;;2.09;56.63;99739.91;4393452;32;33516;-92
2020/12/03 00:22:50;;;;;;;32.10;16.08;;;;;;;2.09;57.09;99764.75;4380313;32;34288;-93
2020/12/03 00:25:23;;;;;;;37.58;16.50;;;;;;;2.69;55.69;99772.00;4391284;32;33411;-93
2020/12/03 00:27:56;;;;;;;28.30;15.93;;;;;;;1.66;58.23;99770.22;4377473;32;32957;-93
2020/12/03 00:30:31;;;;;;;28.12;16.42;;;;;;;2.44;56.18;99774.19;4393155;32;34474;-92
2020/12/03 00:33:03;;;;;;;28.25;15.30;;;;;;;2.52;55.72;99778.84;4394374;32;33883;-92
2020/12/03 00:35:39;;;;;;;27.85;15.82;;;;;;;1.79;57.54;99791.38;4381826;32;34286;-93
2020/12/03 00:38:11;;;;;;;26.67;14.48;;;;;;;2.02;56.70;99794.72;4364970;32;34129;-93
2020/12/03 00:40:45;;;;;;;29.75;16.95;;;;;;;2.08;56.29;99783.53;4366045;32;34050;-94
2020/12/03 00:43:18;;;;;;;27.73;15.70;;;;;;;2.58;55.18;99772.97;4392860;32;32513;-93
2020/12/03 00:45:50;;;;;;;24.77;15.75;;;;;;;2.04;56.43;99750.13;4381633;32;33580;-94
2020/12/03 00:48:23;;;;;;;27.15;14.90;;;;;;;2.36;56.38;99741.16;4366071;32;32662;-96
2020/12/03 00:51:28;;;;;;;24.80;13.95;;;;;;;2.11;56.13;99743.28;4382537;32;34309;-96
2020/12/03 00:54:05;;;;;;;25.95;14.63;;;;;;;1.84;56.72;99749.16;4371345;32;34292;-93
2020/12/03 00:56:39;;;;;;;28.17;15.10;;;;;;;1.46;57.59;99739.94;4404055;32;34384;-95
2020/12/03 00:59:12;;;;;;;28.70;14.65;;;;;;;1.86;56.93;99742.75;4392175;32;35034;-94
2020/12/03 01:02:06;;;;;;;27.25;14.43;;;;;;;2.02;56.37;99741.41;4378520;32;33636;-92
2020/12/03 01:04:38;;;;;;;28.83;14.90;;;;;;;1.69;57.28;99740.66;4388586;32;35005;-93
2020/12/03 01:07:12;;;;;;;28.05;15.43;;;;;;;1.90;57.09;99736.19;4389111;32;34876;-93
2020/12/03 01:09:45;;;;;;;26.92;15.07;;;;;;;1.71;57.29;99728.91;4365429;32;35261;-93
2020/12/03 01:12:18;;;;;;;24.08;14.35;;;;;;;1.36;57.90;99729.22;4365929;32;34604;-92
2020/12/03 01:14:50;;;;;;;28.23;15.63;;;;;;;1.53;57.31;99728.66;4353266;32;33530;-92
2020/12/03 01:17:23;;;;;;;26.95;14.75;;;;;;;1.32;58.19;99719.81;4378284;32;33519;-95
2020/12/03 01:19:56;;;;;;;29.48;14.55;;;;;;;1.69;56.63;99717.53;4366120;32;33638;-91
2020/12/03 01:22:29;;;;;;;27.13;14.90;;;;;;;1.70;57.05;99711.22;4366140;32;33401;-94
2020/12/03 01:25:05;;;;;;;23.60;13.48;;;;;;;2.05;56.06;99717.16;4365896;32;33754;-96
2020/12/03 01:28:03;;;;;;;27.58;16.15;;;;;;;1.84;56.95;99719.84;4377473;32;33591;-96
2020/12/03 01:30:36;;;;;;;25.33;14.45;;;;;;;2.05;55.65;99698.47;4379478;32;33951;-93
2020/12/03 01:33:09;;;;;;;30.25;14.60;;;;;;;2.36;55.15;99701.97;4382910;32;35202;-93
2020/12/03 01:35:41;;;;;;;28.58;15.30;;;;;;;1.74;56.17;99695.81;4380475;32;33496;-93
2020/12/03 01:38:14;;;;;;;28.33;13.15;;;;;;;1.87;55.72;99701.78;4379273;32;34940;-93
2020/12/03 01:40:50;;;;;;;20.73;13.00;;;;;;;1.76;56.63;99715.19;4378828;32;33647;-95
2020/12/03 01:43:42;;;;;;;25.35;13.70;;;;;;;1.93;56.15;99717.25;4378533;32;33757;-96
2020/12/03 01:46:16;;;;;;;26.48;14.65;;;;;;;1.45;57.27;99709.78;4383656;32;32102;-94
2020/12/03 01:49:02;;;;;;;25.10;13.48;;;;;;;1.70;56.44;99699.72;4386605;32;32708;-95
2020/12/03 01:51:38;;;;;;;24.80;14.23;;;;;;;1.86;56.35;99694.75;4388947;32;36022;-92
2020/12/03 01:54:13;;;;;;;24.17;13.27;;;;;;;1.41;57.37;99679.06;4389302;32;33727;-93
2020/12/03 01:56:54;;;;;;;31.17;14.55;;;;;;;1.25;57.94;99679.53;4386189;32;33565;-92
2020/12/03 01:59:41;;;;;;;29.00;14.60;;;;;;;1.92;56.30;99672.91;4373599;32;33667;-91
2020/12/03 02:02:16;;;;;;;27.40;13.88;;;;;;;1.98;56.03;99663.53;4383293;32;33926;-94
2020/12/03 02:05:17;;;;;;;21.20;13.43;;;;;;;2.41;55.28;99646.41;4364397;32;33728;-92
2020/12/03 02:07:50;;;;;;;27.83;13.68;;;;;;;1.74;56.84;99637.19;4365617;32;33398;-93
2020/12/03 02:10:25;;;;;;;28.52;15.13;;;;;;;2.08;56.34;99639.56;4388526;32;34326;-96
2020/12/03 02:12:57;;;;;;;24.87;13.05;;;;;;;2.02;55.76;99637.44;4361635;32;34414;-95
2020/12/03 02:15:30;;;;;;;26.90;14.32;;;;;;;2.17;55.96;99638.78;4387313;32;33789;-93
2020/12/03 02:18:04;;;;;;;22.48;12.27;;;;;;;1.84;56.42;99647.88;4388880;32;34166;-95
2020/12/03 02:20:49;;;;;;;25.27;14.05;;;;;;;2.39;55.41;99637.69;4400222;32;34838;-94
2020/12/03 02:23:22;;;;;;;27.42;13.75;;;;;;;1.74;57.89;99650.53;4361310;32;34519;-93
2020/12/03 02:26:01;;;;;;;21.05;13.18;;;;;;;2.20;56.36;99649.16;4424684;32;34096;-94
2020/12/03 02:28:33;;;;;;;22.92;11.93;;;;;;;1.84;57.62;99653.22;4395713;32;33589;-91
2020/12/03 02:31:06;;;;;;;22.70;13.65;;;;;;;1.20;59.12;99641.81;4406228;32;33932;-92
2020/12/03 02:33:38;;;;;;;24.52;13.73;;;;;;;2.12;57.41;99646.31;4393978;32;34023;-94
2020/12/03 02:36:24;;;;;;;23.33;13.88;;;;;;;1.95;57.06;99645.13;4380521;32;32539;-95
2020/12/03 02:38:56;;;;;;;24.98;12.90;;;;;;;2.00;56.68;99628.75;4381470;32;34072;-96
2020/12/03 02:41:41;;;;;;;24.67;13.40;;;;;;;1.68;57.34;99633.25;4400140;32;35911;-93
2020/12/03 02:44:13;;;;;;;24.63;13.60;;;;;;;2.36;56.29;99624.62;4386845;32;32681;-95
2020/12/03 02:46:58;;;;;;;21.75;13.27;;;;;;;2.29;55.84;99624.34;4393928;32;32511;-96
2020/12/03 02:49:30;;;;;;;24.65;13.77;;;;;;;2.26;55.78;99624.59;4396042;32;35352;-93
2020/12/03 02:52:03;;;;;;;21.50;12.70;;;;;;;2.57;55.29;99615.66;4384120;32;35035;-92
2020/12/03 02:54:37;;;;;;;27.00;14.23;;;;;;;1.61;57.03;99608.09;4385423;32;34317;-95
2020/12/03 02:57:24;;;;;;;22.42;13.82;;;;;;;1.89;56.13;99616.34;4368336;32;32085;-96
2020/12/03 02:59:57;;;;;;;23.23;13.60;;;;;;;1.66;57.26;99619.22;4394604;32;34214;-93
2020/12/03 03:02:33;;;;;;;21.27;12.73;;;;;;;1.75;56.82;99621.06;4392974;32;34327;-93
2020/12/03 03:05:05;;;;;;;22.23;12.95;;;;;;;2.22;55.77;99628.53;4379368;32;33993;-94
2020/12/03 03:07:50;;;;;;;24.75;13.48;;;;;;;1.85;56.03;99614.94;4378528;32;32650;-96
2020/12/03 03:10:24;;;;;;;22.30;13.02;;;;;;;1.41;56.70;99610.66;4371864;32;32528;-92
2020/12/03 03:12:57;;;;;;;24.75;12.93;;;;;;;1.66;56.60;99608.56;4381968;32;34625;-93
2020/12/03 03:15:29;;;;;;;22.83;12.93;;;;;;;1.63;57.35;99611.47;4377418;32;34431;-95
2020/12/03 03:18:18;;;;;;;25.67;13.35;;;;;;;1.39;57.67;99590.44;4358953;32;32125;-95
2020/12/03 03:20:53;;;;;;;22.67;13.27;;;;;;;1.57;56.82;99607.53;4358741;32;35190;-93
2020/12/03 03:23:26;;;;;;;26.50;14.77;;;;;;;0.88;58.36;99600.09;4364058;32;34944;-93
2020/12/03 03:25:58;;;;;;;23.90;14.27;;;;;;;1.19;58.09;99597.50;4339384;32;34718;-92
2020/12/03 03:28:31;;;;;;;26.67;13.77;;;;;;;1.26;57.66;99590.69;4359751;32;34960;-96
2020/12/03 03:31:03;;;;;;;23.50;13.00;;;;;;;1.46;57.18;99585.47;4360088;32;34271;-96
2020/12/03 03:34:10;;;;;;;20.70;12.10;;;;;;;1.66;56.55;99594.38;4363631;32;34866;-96
2020/12/03 03:36:42;;;;;;;19.98;12.40;;;;;;;1.53;56.44;99587.44;4351291;32;34225;-95
2020/12/03 03:39:24;;;;;;;27.90;14.35;;;;;;;1.75;56.44;99588.22;4364974;32;34082;-96
2020/12/03 03:41:57;;;;;;;20.92;13.38;;;;;;;1.93;55.66;99586.62;4363865;32;34519;-91
2020/12/03 03:44:30;;;;;;;25.90;13.80;;;;;;;1.62;56.37;99588.47;4363243;32;33692;-94
2020/12/03 03:47:02;;;;;;;24.52;12.98;;;;;;;1.58;56.64;99585.22;4356373;32;34838;-92
2020/12/03 03:49:35;;;;;;;21.85;13.18;;;;;;;2.33;55.00;99594.72;4349025;32;33676;-92
2020/12/03 03:52:07;;;;;;;23.77;14.35;;;;;;;1.94;55.53;99584.78;4334932;32;34271;-95
2020/12/03 03:55:32;;;;;;;30.37;14.43;;;;;;;1.84;56.15;99570.59;4337303;32;32956;-92
2020/12/03 03:58:09;;;;;;;42.40;22.83;;;;;;;1.94;55.80;99542.97;4337204;33;33734;-95
2020/12/03 04:00:54;;;;;;;27.30;16.02;;;;;;;1.86;56.16;99550.81;4379493;32;33131;-91
2020/12/03 04:03:27;;;;;;;21.67;13.55;;;;;;;2.16;55.52;99541.06;4381095;32;33455;-96
2020/12/03 04:05:59;;;;;;;20.98;13.52;;;;;;;2.27;55.10;99543.59;4368517;32;34751;-95
2020/12/03 04:08:43;;;;;;;23.08;13.52;;;;;;;2.23;54.90;99546.69;4370764;32;34247;-92
2020/12/03 04:11:16;;;;;;;19.92;12.13;;;;;;;1.69;55.96;99552.34;4358650;32;32566;-90
2020/12/03 04:13:48;;;;;;;26.48;14.57;;;;;;;2.26;55.02;99536.59;4325300;33;33808;-90
2020/12/03 04:16:20;;;;;;;22.13;11.88;;;;;;;2.03;55.76;99541.31;4336746;33;33667;-96
2020/12/03 04:19:00;;;;;;;20.42;12.80;;;;;;;1.88;56.65;99543.53;4363266;32;32684;-93
2020/12/03 04:21:36;;;;;;;24.42;12.95;;;;;;;1.67;56.77;99535.63;4390597;32;34539;-91
2020/12/03 04:24:10;;;;;;;25.62;13.43;;;;;;;1.30;58.13;99543.31;4377705;32;34437;-93
2020/12/03 04:26:42;;;;;;;22.27;13.48;;;;;;;1.96;56.50;99534.00;4351213;32;33273;-94
2020/12/03 04:29:31;;;;;;;25.45;14.60;;;;;;;1.62;56.86;99513.00;4354124;32;32665;-96
2020/12/03 04:32:04;;;;;;;26.42;13.43;;;;;;;1.71;56.93;99515.72;4361853;32;33100;-95
2020/12/03 04:34:36;;;;;;;22.25;12.52;;;;;;;2.02;55.52;99517.47;4365683;32;34024;-91
2020/12/03 04:37:09;;;;;;;22.30;12.63;;;;;;;1.85;56.22;99524.31;4363520;32;34619;-92
2020/12/03 04:39:49;;;;;;;22.55;12.77;;;;;;;2.01;55.87;99527.28;4367278;32;33932;-94
2020/12/03 04:42:24;;;;;;;24.73;12.27;;;;;;;1.54;56.50;99498.56;4380765;32;32494;-92
2020/12/03 04:45:02;;;;;;;22.45;12.75;;;;;;;1.79;56.51;99507.03;4392828;32;33731;-90
2020/12/03 04:47:43;;;;;;;23.05;12.27;;;;;;;1.58;56.61;99499.13;4391210;32;35313;-93
2020/12/03 04:50:24;;;;;;;23.58;11.88;;;;;;;2.06;55.74;99498.37;4392248;32;34397;-95
2020/12/03 04:53:22;;;;;;;25.05;13.20;;;;;;;1.61;56.55;99498.03;4392372;32;34914;-91
2020/12/03 04:56:02;;;;;;;24.08;13.27;;;;;;;1.86;56.20;99488.69;4405934;32;33709;-95
2020/12/03 04:58:48;;;;;;;19.15;11.90;;;;;;;1.05;58.49;99487.72;4392856;32;34564;-94
2020/12/03 05:02:14;;;;;;;23.10;12.88;;;;;;;1.91;55.84;99487.28;4291578;32;36410;-93
2020/12/03 05:05:28;;;;;;;20.10;12.37;;;;;;;1.25;58.09;99482.47;4389945;32;33887;-93
2020/12/03 05:08:48;;;;;;;21.55;12.15;;;;;;;1.80;56.18;99484.75;4363301;32;32667;-92
2020/12/03 05:11:32;;;;;;;26.45;13.10;;;;;;;1.88;56.28;99479.56;4344313;32;34290;-91
2020/12/03 05:14:12;;;;;;;23.55;12.73;;;;;;;1.31;57.28;99470.44;4365061;32;33958;-91
2020/12/03 05:17:17;;;;;;;22.33;13.43;;;;;;;1.91;56.52;99489.09;4364752;32;33585;-92
2020/12/03 05:20:30;;;;;;;26.02;13.30;;;;;;;1.64;56.75;99487.09;4364627;32;35117;-96
2020/12/03 05:23:17;;;;;;;24.80;13.45;;;;;;;1.53;56.67;99480.91;4348541;32;34832;-96
2020/12/03 05:25:54;;;;;;;23.15;12.50;;;;;;;1.40;57.51;99482.94;4350598;32;34794;-96
2020/12/03 05:29:01;;;;;;;24.48;14.13;;;;;;;1.15;57.84;99486.91;4361516;32;32653;-92
2020/12/03 05:31:48;;;;;;;28.67;12.43;;;;;;;1.63;56.84;99493.41;4339889;32;35373;-91
2020/12/03 05:34:21;;;;;;;23.25;12.88;;;;;;;1.21;58.10;99497.87;4378006;32;34771;-94
2020/12/03 05:37:12;;;;;;;22.83;12.77;;;;;;;1.57;56.94;99492.09;4364806;32;33966;-92
2020/12/03 05:39:49;;;;;;;24.15;13.40;;;;;;;1.79;56.63;99474.22;4380355;32;32853;-96
2020/12/03 05:42:37;;;;;;;27.87;12.75;;;;;;;1.45;57.18;99466.56;4367055;32;34884;-94
2020/12/03 05:45:12;;;;;;;26.23;13.55;;;;;;;2.04;55.74;99462.19;4365852;32;33642;-96
2020/12/03 05:48:34;;;;;;;26.12;13.15;;;;;;;1.90;55.78;99456.28;4348775;32;35971;-91
2020/12/03 05:51:17;;;;;;;30.80;13.57;;;;;;;1.99;55.55;99454.63;4349226;32;33183;-96
2020/12/03 05:54:08;;;;;;;23.87;14.20;;;;;;;1.52;56.54;99465.03;4381764;32;35687;-95
2020/12/03 05:56:50;;;;;;;24.35;13.50;;;;;;;1.56;56.59;99458.47;4367729;32;34768;-96
2020/12/03 05:59:50;;;;;;;25.62;13.85;;;;;;;1.65;56.29;99457.66;4350496;32;34895;-90
2020/12/03 06:02:33;;;;;;;26.65;13.90;;;;;;;1.86;56.01;99457.53;4349844;32;33263;-91
2020/12/03 06:05:45;;;;;;;26.15;13.23;;;;;;;1.49;56.88;99463.50;4349949;32;33677;-94
2020/12/03 06:08:17;;;;;;;24.45;13.27;;;;;;;1.94;56.00;99456.84;4343857;32;33879;-90
2020/12/03 06:11:15;;;;;;;26.05;14.73;;;;;;;1.91;55.67;99457.97;4362754;32;33683;-94
2020/12/03 06:14:19;;;;;;;25.85;13.60;;;;;;;1.77;56.16;99448.56;4348809;32;32235;-90
2020/12/03 06:17:06;;;;;;;31.55;14.00;;;;;;;1.93;55.78;99445.34;4349923;32;35224;-94
2020/12/03 06:19:50;;;;;;;25.37;12.68;;;;;;;1.76;56.25;99443.34;4362862;32;37416;-91
2020/12/03 06:22:26;;;;;;;24.60;13.27;;;;;;;1.86;56.18;99438.06;4363592;32;34265;-90
2020/12/03 06:25:02;;;;;;;24.25;13.02;;;;;;;1.54;56.55;99439.97;4351051;32;33938;-92
2020/12/03 06:27:49;;;;;;;18.80;10.68;;;;;;;1.82;55.84;99442.81;4365146;32;33512;-94
2020/12/03 06:30:27;;;;;;;27.33;13.75;;;;;;;1.59;56.62;99451.03;4350871;32;34313;-92
2020/12/03 06:33:10;;;;;;;26.55;14.45;;;;;;;2.20;55.43;99441.16;4362616;32;33617;-94
2020/12/03 06:35:49;;;;;;;25.65;12.60;;;;;;;1.53;56.36;99446.25;4363236;32;33851;-92
2020/12/03 06:38:26;;;;;;;24.65;13.75;;;;;;;1.94;55.21;99452.34;4297788;32;34360;-95
2020/12/03 06:41:16;;;;;;;22.40;13.38;;;;;;;1.92;55.51;99449.00;4363018;32;33796;-96
2020/12/03 06:44:27;;;;;;;23.77;13.20;;;;;;;1.94;55.80;99452.34;4389556;32;32667;-96
2020/12/03 06:47:21;;;;;;;23.52;12.20;;;;;;;1.84;55.93;99451.53;4365952;32;34179;-95
2020/12/03 06:50:02;;;;;;;24.65;12.65;;;;;;;1.61;56.09;99458.06;4377736;32;33047;-91
2020/12/03 06:52:53;;;;;;;22.58;12.45;;;;;;;1.39;56.80;99449.28;4367199;32;33179;-96
2020/12/03 06:56:39;;;;;;;23.12;13.07;;;;;;;1.90;55.51;99464.28;4367967;32;33882;-95
2020/12/03 06:59:32;;;;;;;21.73;12.80;;;;;;;1.41;56.68;99458.84;4376211;32;34633;-96
2020/12/03 07:02:14;;;;;;;26.40;13.98;;;;;;;1.29;57.09;99462.59;4365795;32;34250;-93
2020/12/03 07:05:24;;;;;;;26.77;13.98;;;;;;;1.44;56.88;99470.19;4367950;32;34781;-95
2020/12/03 07:08:33;;;;;;;27.25;13.93;;;;;;;1.91;55.72;99470.44;4393799;32;34255;-93
2020/12/03 07:11:44;;;;;;;25.80;12.88;;;;;;;1.79;56.17;99490.22;4392708;32;33658;-96
2020/12/03 07:15:08;;;;;;;23.08;13.40;;;;;;;1.68;55.44;99473.34;4374103;32;34662;-93
2020/12/03 07:17:49;;;;;;;21.05;11.57;;;;;;;1.75;55.83;99487.81;4381378;32;35269;-96
2020/12/03 07:21:27;;;;;;;25.37;14.27;;;;;;;2.18;54.90;99485.75;4389688;32;33986;-96
2020/12/03 07:24:36;;;;;;;25.20;14.00;;;;;;;1.97;54.83;99485.06;4380540;32;34011;-94
2020/12/03 07:27:43;;;;;;;29.42;15.48;;;;;;;1.97;55.15;99479.72;882681;27;33522;-94
2020/12/03 07:30:48;;;;;;;25.88;13.27;;;;;;;1.69;55.76;99479.53;4410634;27;33728;-95
2020/12/03 07:34:29;;;;;;;28.30;14.77;;;;;;;1.40;56.44;99480.28;4304078;33;33769;-96
2020/12/03 07:38:00;;;;;;;30.83;16.02;;;;;;;2.04;55.04;99488.84;4275172;33;20177;-96
2020/12/03 07:55:49;;;;;;;24.30;14.32;;;;;;;2.54;53.74;99483.37;4262981;28;32681;-96
2020/12/03 07:58:52;;;;;;;30.58;15.98;;;;;;;2.57;54.27;99476.91;4328844;28;32225;-93
2020/12/03 08:02:22;;;;;;;24.95;14.95;;;;;;;2.25;54.47;99491.41;4180400;34;33970;-95
2020/12/03 08:06:27;;;;;;;24.12;14.32;;;;;;;2.53;54.55;99488.84;4164845;34;34455;-96
2020/12/03 08:09:16;;;;;;;28.02;13.40;;;;;;;2.93;53.65;99495.81;4209228;33;34419;-96
2020/12/03 08:12:31;;;;;;;32.85;14.60;;;;;;;3.04;53.73;99497.47;4207174;34;33840;-96
2020/12/03 08:15:06;;;;;;;29.42;15.73;;;;;;;2.54;55.97;99502.03;4208106;34;33601;-96
2020/12/03 08:17:50;;;;;;;26.48;15.45;;;;;;;2.55;55.35;99482.37;4208414;34;33941;-96
2020/12/03 08:20:36;;;;;;;29.35;16.08;;;;;;;2.58;56.14;99500.78;4216801;28;33907;-92
2020/12/03 08:23:35;;;;;;;27.05;14.93;;;;;;;3.12;55.73;99505.59;4292668;28;31236;-96
2020/12/03 08:26:18;;;;;;;27.37;15.07;;;;;;;2.81;56.08;99492.47;4241949;33;32341;-96
2020/12/03 08:33:15;;;;;;;24.60;14.45;;;;;;;2.61;56.35;99510.34;4229491;33;34900;-95
2020/12/03 08:35:50;;;;;;;30.92;15.95;;;;;;;3.20;55.38;99497.69;4261951;28;33387;-96
2020/12/03 08:38:28;;;;;;;31.92;15.90;;;;;;;2.53;56.34;99504.84;4259582;33;34299;-95
2020/12/03 08:41:09;;;;;;;24.90;14.57;;;;;;;3.62;54.81;99491.91;4243189;33;35064;-95
2020/12/03 08:43:43;;;;;;;;;;;;;;;3.70;55.12;99481.28;4235897;33;34617;-90
2020/12/03 08:46:21;;;;;;;31.77;15.75;;;;;;;3.18;54.83;99486.31;4239933;33;34811;-90
2020/12/03 08:48:54;;;;;;;25.73;15.73;;;;;;;3.30;54.55;99484.31;4229827;33;34819;-94
2020/12/03 08:51:30;;;;;;;25.73;15.88;;;;;;;3.58;56.15;99485.16;4231962;33;32418;-95
2020/12/03 08:54:04;;;;;;;28.60;16.33;;;;;;;3.94;54.61;99485.25;4229606;33;33460;-96
2020/12/03 08:57:00;;;;;;;30.23;17.48;;;;;;;3.67;54.04;99489.63;4207655;33;32679;-96
2020/12/03 08:59:34;;;;;;;34.38;14.90;;;;;;;3.99;54.20;99480.25;4227270;33;34283;-93
2020/12/03 09:02:29;;;;;;;28.15;15.05;;;;;;;3.93;54.47;99480.03;4213325;33;34412;-94
2020/12/03 09:05:23;;;;;;;27.02;14.60;;;;;;;3.95;55.38;99465.53;4210918;33;32636;-92
2020/12/03 09:07:58;;;;;;;24.58;15.32;;;;;;;3.21;56.33;99478.00;4219350;33;34652;-95
2020/12/03 09:10:36;;;;;;;26.60;16.58;;;;;;;3.42;56.36;99479.62;4213729;33;32542;-94
2020/12/03 09:13:12;;;;;;;27.75;17.35;;;;;;;3.53;56.35;99471.41;4213123;33;34156;-95
2020/12/03 09:15:57;;;;;;;27.30;16.50;;;;;;;3.54;56.56;99462.41;4205556;34;34287;-92
2020/12/03 09:18:29;;;;;;;25.88;15.30;;;;;;;3.57;56.93;99462.09;4217953;33;34151;-92
2020/12/03 09:21:03;;;;;;;29.85;16.05;;;;;;;3.71;58.04;99463.41;4207075;34;33831;-93
2020/12/03 09:23:37;;;;;;;33.30;16.60;;;;;;;3.27;57.99;99450.72;4231561;33;33393;-93
2020/12/03 09:26:36;;;;;;;34.38;18.48;;;;;;;3.86;57.75;99451.22;4250148;28;34659;-95
2020/12/03 09:29:11;;;;;;;26.45;15.80;;;;;;;3.67;59.30;99446.84;4260160;33;32602;-96
2020/12/03 09:31:55;;;;;;;26.80;16.27;;;;;;;3.47;58.99;99439.94;4242086;33;34101;-93
2020/12/03 09:34:31;;;;;;;29.73;17.00;;;;;;;3.53;59.77;99434.84;4233250;33;34008;-96
2020/12/03 09:37:21;;;;;;;31.77;18.15;;;;;;;3.71;60.64;99426.84;4239303;33;33185;-92
2020/12/03 09:39:54;;;;;;;32.35;18.45;;;;;;;3.29;61.39;99426.53;4237202;33;34875;-95
2020/12/03 09:42:48;;;;;;;31.02;16.75;;;;;;;3.87;60.16;99414.63;4230088;33;33710;-91
2020/12/03 09:45:23;;;;;;;32.03;18.33;;;;;;;3.66;60.34;99423.78;4232981;33;32413;-92
2020/12/03 09:47:56;;;;;;;34.22;18.50;;;;;;;3.34;62.89;99417.06;4232921;33;34574;-92
2020/12/03 09:50:30;;;;;;;31.10;16.40;;;;;;;4.10;61.02;99416.84;4232569;33;35374;-90
2020/12/03 09:53:05;;;;;;;34.25;17.50;;;;;;;4.12;62.31;99406.84;4235901;33;33858;-92
2020/12/03 09:55:39;;;;;;;31.95;17.73;;;;;;;4.03;61.86;99398.75;4222822;33;34637;-96
2020/12/03 09:58:17;;;;;;;33.38;17.92;;;;;;;3.37;64.47;99402.59;4230133;33;32982;-90
2020/12/03 10:00:51;;;;;;;31.30;17.62;;;;;;;3.84;63.93;99389.03;4227998;33;35233;-92
2020/12/03 10:03:57;;;;;;;35.08;18.42;;;;;;;3.30;64.59;99390.81;4218171;33;34361;-90
2020/12/03 10:06:35;;;;;;;36.10;18.40;;;;;;;3.41;64.29;99393.25;4216270;33;33031;-92
2020/12/03 10:09:56;;;;;;;35.45;17.02;;;;;;;3.93;64.23;99384.59;4122309;33;36184;-90
2020/12/03 10:12:59;;;;;;;36.28;18.85;;;;;;;4.07;62.83;99377.88;4227987;33;33063;-94
2020/12/03 10:16:02;;;;;;;42.25;25.00;;;;;;;4.19;63.35;99373.97;4235869;33;34475;-89
2020/12/03 10:18:54;;;;;;;39.28;23.02;;;;;;;3.60;64.68;99376.28;4228441;33;35967;-94
2020/12/03 10:21:49;;;;;;;34.20;21.45;;;;;;;3.69;65.37;99370.00;4227049;33;33052;-94
2020/12/03 10:24:24;;;;;;;35.78;19.58;;;;;;;3.83;65.84;99365.97;4225843;33;35004;-94
2020/12/03 10:27:25;;;;;;;34.28;20.70;;;;;;;3.94;65.37;99364.03;4222310;33;35236;-93
2020/12/03 10:30:01;;;;;;;35.88;18.98;;;;;;;4.14;64.43;99359.38;4236937;33;34120;-93
2020/12/03 10:32:52;;;;;;;33.53;19.62;;;;;;;3.51;66.55;99355.81;4223705;33;33027;-96
2020/12/03 10:35:24;;;;;;;35.70;21.52;;;;;;;3.07;67.96;99358.31;4206316;33;34687;-93
2020/12/03 10:38:19;;;;;;;37.90;18.87;;;;;;;3.69;66.73;99347.78;4234283;33;34569;-94
2020/12/03 10:40:56;;;;;;;42.03;19.67;;;;;;;3.67;67.25;99344.44;4224758;33;34382;-96
2020/12/03 10:43:45;;;;;;;37.40;20.75;;;;;;;3.29;68.17;99335.69;4225466;33;37059;-95
2020/12/03 10:46:22;;;;;;;39.85;20.60;;;;;;;3.78;67.70;99341.53;4207837;33;34270;-93
2020/12/03 10:49:07;;;;;;;35.58;20.52;;;;;;;4.24;66.61;99338.72;4229473;33;34709;-93
2020/12/03 10:51:40;;;;;;;33.42;19.25;;;;;;;4.03;66.84;99337.22;4226563;33;34375;-92
2020/12/03 10:54:19;;;;;;;32.13;18.33;;;;;;;3.85;67.35;99329.22;4228725;33;35576;-96
2020/12/03 10:56:53;;;;;;;35.40;20.15;;;;;;;4.05;67.42;99326.38;4234544;33;32287;-94
2020/12/03 10:59:41;;;;;;;34.65;19.67;;;;;;;4.14;66.82;99335.31;4244084;33;35403;-92
2020/12/03 11:02:26;;;;;;;38.78;19.10;;;;;;;3.48;69.41;99340.91;4238106;33;33392;-90
2020/12/03 11:04:59;;;;;;;31.15;18.60;;;;;;;3.13;70.37;99349.72;4217756;33;34268;-93
2020/12/03 11:07:34;;;;;;;34.92;19.23;;;;;;;3.83;68.73;99344.59;4229307;33;32961;-90
2020/12/03 11:10:06;;;;;;;36.55;19.05;;;;;;;3.68;68.15;99338.94;4218355;33;33877;-90
2020/12/03 11:12:39;;;;;;;37.53;19.87;;;;;;;3.40;70.26;99350.66;4237345;33;33427;-91
2020/12/03 11:15:12;;;;;;;36.72;19.95;;;;;;;3.79;69.35;99347.72;4228795;33;34108;-92
2020/12/03 11:17:53;;;;;;;43.40;21.42;;;;;;;4.20;67.98;99350.72;4229272;33;33923;-89
2020/12/03 11:20:27;;;;;;;36.33;20.75;;;;;;;3.78;68.84;99341.53;4240036;33;33548;-91
2020/12/03 11:23:03;;;;;;;38.17;22.10;;;;;;;4.26;68.37;99342.06;4228064;33;33374;-90
2020/12/03 11:25:36;;;;;;;45.12;26.10;;;;;;;3.97;69.09;99335.19;4212725;33;35842;-90
2020/12/03 11:28:33;;;;;;;36.15;20.90;;;;;;;4.13;68.76;99326.44;4239532;33;34223;-90
2020/12/03 11:31:07;;;;;;;36.47;21.05;;;;;;;3.88;68.86;99328.09;4224573;33;34341;-90
2020/12/03 11:33:43;;;;;;;37.38;22.30;;;;;;;3.92;69.78;99318.75;4237072;33;33693;-90
2020/12/03 11:36:16;;;;;;;32.75;20.62;;;;;;;4.28;68.14;99316.03;4228205;33;33381;-91
2020/12/03 11:38:52;;;;;;;41.17;22.17;;;;;;;3.85;69.06;99299.81;4227675;33;33762;-91
2020/12/03 11:44:16;;;;;;;42.70;23.50;;;;;;;4.42;68.09;99306.56;4233155;33;33223;-91
2020/12/03 11:49:33;;;;;;;43.40;26.45;;;;;;;4.33;67.69;99296.81;4238311;33;32378;-90
2020/12/03 11:52:13;;;;;;;38.83;22.65;;;;;;;4.53;67.09;99298.25;4227794;33;34577;-91
2020/12/03 11:54:46;;;;;;;37.33;23.15;;;;;;;4.25;67.88;99294.91;4225575;33;34044;-92
2020/12/03 11:57:20;;;;;;;40.45;22.37;;;;;;;4.34;67.43;99287.78;4218104;33;34209;-91
2020/12/03 11:59:53;;;;;;;37.33;21.90;;;;;;;4.69;67.27;99284.09;4232788;33;33505;-91
2020/12/03 12:02:25;;;;;;;39.85;22.73;;;;;;;4.84;66.10;99275.47;4224873;33;34940;-93
2020/12/03 12:05:06;;;;;;;42.10;21.85;;;;;;;4.47;67.96;99266.78;4221328;33;33857;-93
2020/12/03 12:07:49;;;;;;;32.90;20.62;;;;;;;4.50;67.92;99260.28;4205873;33;34135;-93
2020/12/03 12:10:34;;;;;;;38.63;21.65;;;;;;;4.75;67.70;99262.03;4216797;33;34520;-89
2020/12/03 12:13:07;;;;;;;43.45;23.60;;;;;;;4.29;67.78;99256.13;4224919;33;33895;-92
2020/12/03 12:15:40;;;;;;;78.65;37.75;;;;;;;4.15;68.65;99262.09;4219711;33;33075;-95
2020/12/03 12:18:12;;;;;;;63.38;31.10;;;;;;;3.83;70.24;99259.03;4226438;33;34109;-92
2020/12/03 12:20:47;;;;;;;48.58;28.73;;;;;;;4.16;69.13;99261.06;4226010;33;33593;-92
2020/12/03 12:23:20;;;;;;;53.40;28.67;;;;;;;3.94;69.98;99254.41;4214766;33;34072;-90
2020/12/03 12:25:52;;;;;;;48.50;25.77;;;;;;;4.05;69.86;99251.50;4221513;33;33980;-93
2020/12/03 12:28:24;;;;;;;40.75;23.75;;;;;;;4.44;68.35;99251.03;4221256;33;34007;-96
2020/12/03 12:31:15;;;;;;;39.60;22.92;;;;;;;4.28;69.00;99245.59;4228692;33;34204;-95
2020/12/03 12:33:48;;;;;;;51.47;27.37;;;;;;;4.28;69.45;99245.59;4230086;33;34331;-93
2020/12/03 12:36:34;;;;;;;38.72;23.70;;;;;;;4.27;68.63;99239.41;4214088;33;33777;-90
2020/12/03 12:39:06;;;;;;;34.33;20.90;;;;;;;4.72;67.49;99232.09;4237514;33;33447;-93
2020/12/03 12:41:39;;;;;;;38.20;22.67;;;;;;;3.89;69.24;99229.00;4239173;33;32918;-93
2020/12/03 12:44:12;;;;;;;36.67;22.02;;;;;;;4.36;68.88;99230.44;4217843;33;35232;-92
2020/12/03 12:46:46;;;;;;;39.90;24.30;;;;;;;4.67;67.41;99229.91;4204468;33;35409;-90
2020/12/03 12:49:18;;;;;;;39.97;22.95;;;;;;;4.19;68.11;99239.34;4215848;33;34260;-94
2020/12/03 12:51:52;;;;;;;36.85;21.45;;;;;;;4.72;67.40;99227.56;4221682;33;35811;-91
2020/12/03 12:54:25;;;;;;;37.88;23.17;;;;;;;3.88;68.90;99224.63;4227946;33;32468;-91
2020/12/03 12:57:01;;;;;;;37.50;21.67;;;;;;;3.97;68.96;99220.19;4233509;33;32849;-96
2020/12/03 12:59:34;;;;;;;39.70;21.60;;;;;;;3.79;70.32;99209.53;4219362;33;34960;-96
2020/12/03 13:02:19;;;;;;;38.15;20.83;;;;;;;4.38;68.65;99217.72;4243955;33;34639;-94
2020/12/03 13:05:04;;;;;;;38.33;20.65;;;;;;;4.56;68.40;99214.13;4236548;33;33245;-93